sensor_id;sensor_type;location;lat;lon;timestamp;pressure;altitude;pressure_sealevel;temperature;humidity
75852;BME280;64500;52.632;20.656;2022-12-08T00:01:21;99544.33;;;2.11;79.91
75852;BME280;64500;52.632;20.656;2022-12-08T00:03:48;99542.23;;;2.10;79.82
75852;BME280;64500;52.632;20.656;2022-12-08T00:06:23;99547.28;;;2.11;79.82
75852;BME280;64500;52.632;20.656;2022-12-08T00:11:58;99558.80;;;2.08;79.75
75852;BME280;64500;52.632;20.656;2022-12-08T00:14:30;99558.79;;;2.08;79.90
75852;BME280;64500;52.632;20.656;2022-12-08T00:16:58;99562.46;;;2.08;79.83
75852;BME280;64500;52.632;20.656;2022-12-08T00:19:26;99556.52;;;2.07;79.76
75852;BME280;64500;52.632;20.656;2022-12-08T00:22:20;99562.64;;;2.07;79.88
75852;BME280;64500;52.632;20.656;2022-12-08T00:24:50;99557.76;;;2.06;79.78
75852;BME280;64500;52.632;20.656;2022-12-08T00:27:17;99556.72;;;2.05;79.69
75852;BME280;64500;52.632;20.656;2022-12-08T00:29:45;99555.48;;;2.05;79.85
75852;BME280;64500;52.632;20.656;2022-12-08T00:32:12;99566.30;;;2.05;79.83
75852;BME280;64500;52.632;20.656;2022-12-08T00:34:39;99562.83;;;2.05;79.75
75852;BME280;64500;52.632;20.656;2022-12-08T00:37:05;99562.48;;;2.05;79.81
75852;BME280;64500;52.632;20.656;2022-12-08T00:39:33;99559.86;;;2.04;79.88
75852;BME280;64500;52.632;20.656;2022-12-08T00:41:59;99563.01;;;2.03;79.76
75852;BME280;64500;52.632;20.656;2022-12-08T00:44:40;99562.13;;;2.02;79.90
75852;BME280;64500;52.632;20.656;2022-12-08T00:47:07;99568.06;;;2.02;79.78
75852;BME280;64500;52.632;20.656;2022-12-08T00:49:34;99572.77;;;2.02;79.80
75852;BME280;64500;52.632;20.656;2022-12-08T00:52:01;99575.89;;;2.03;79.74
75852;BME280;64500;52.632;20.656;2022-12-08T00:54:28;99573.46;;;2.04;79.87
75852;BME280;64500;52.632;20.656;2022-12-08T00:56:54;99573.11;;;2.04;79.81
75852;BME280;64500;52.632;20.656;2022-12-08T00:59:21;99577.11;;;2.03;79.67
75852;BME280;64500;52.632;20.656;2022-12-08T01:01:48;99582.00;;;2.02;79.64
75852;BME280;64500;52.632;20.656;2022-12-08T01:04:17;99583.91;;;2.01;79.77
75852;BME280;64500;52.632;20.656;2022-12-08T01:06:45;99588.95;;;2.00;79.78
75852;BME280;64500;52.632;20.656;2022-12-08T01:09:14;99588.63;;;1.99;79.92
75852;BME280;64500;52.632;20.656;2022-12-08T01:11:42;99579.92;;;1.98;79.73
75852;BME280;64500;52.632;20.656;2022-12-08T01:14:10;99577.48;;;1.98;79.80
75852;BME280;64500;52.632;20.656;2022-12-08T01:16:37;99580.96;;;1.98;79.67
75852;BME280;64500;52.632;20.656;2022-12-08T01:19:06;99589.66;;;1.99;79.73
75852;BME280;64500;52.632;20.656;2022-12-08T01:21:33;99590.89;;;1.99;79.85
75852;BME280;64500;52.632;20.656;2022-12-08T01:24:00;99597.70;;;1.99;79.69
75852;BME280;64500;52.632;20.656;2022-12-08T01:26:28;99587.23;;;1.99;79.66
75852;BME280;64500;52.632;20.656;2022-12-08T01:28:56;99588.98;;;1.98;79.65
75852;BME280;64500;52.632;20.656;2022-12-08T01:31:23;99595.08;;;1.98;79.63
75852;BME280;64500;52.632;20.656;2022-12-08T01:33:50;99595.79;;;1.98;79.69
75852;BME280;64500;52.632;20.656;2022-12-08T01:36:24;99598.05;;;1.98;79.68
75852;BME280;64500;52.632;20.656;2022-12-08T01:38:52;99595.77;;;1.98;79.71
75852;BME280;64500;52.632;20.656;2022-12-08T01:41:21;99598.56;;;1.98;79.76
75852;BME280;64500;52.632;20.656;2022-12-08T01:46:40;99596.65;;;1.97;79.81
75852;BME280;64500;52.632;20.656;2022-12-08T01:49:12;99599.61;;;1.96;79.69
75852;BME280;64500;52.632;20.656;2022-12-08T01:51:47;99601.70;;;1.94;79.75
75852;BME280;64500;52.632;20.656;2022-12-08T01:54:15;99607.63;;;1.94;79.84
75852;BME280;64500;52.632;20.656;2022-12-08T01:56:52;99607.63;;;1.94;79.63
75852;BME280;64500;52.632;20.656;2022-12-08T01:59:24;99609.38;;;1.93;79.75
75852;BME280;64500;52.632;20.656;2022-12-08T02:01:52;99609.56;;;1.93;79.77
75852;BME280;64500;52.632;20.656;2022-12-08T02:04:19;99611.13;;;1.93;79.82
75852;BME280;64500;52.632;20.656;2022-12-08T02:06:47;99612.86;;;1.94;79.87
75852;BME280;64500;52.632;20.656;2022-12-08T02:09:14;99607.27;;;1.94;79.85
75852;BME280;64500;52.632;20.656;2022-12-08T02:11:41;99611.64;;;1.94;79.73
75852;BME280;64500;52.632;20.656;2022-12-08T02:14:11;99613.90;;;1.94;79.80
75852;BME280;64500;52.632;20.656;2022-12-08T02:19:59;99617.04;;;1.95;79.71
75852;BME280;64500;52.632;20.656;2022-12-08T02:22:44;99619.83;;;1.94;79.84
75852;BME280;64500;52.632;20.656;2022-12-08T02:25:39;99622.63;;;1.94;79.79
75852;BME280;64500;52.632;20.656;2022-12-08T02:34:10;99624.89;;;1.91;79.82
75852;BME280;64500;52.632;20.656;2022-12-08T02:36:56;99627.16;;;1.90;79.68
75852;BME280;64500;52.632;20.656;2022-12-08T02:40:02;99626.11;;;1.90;79.78
75852;BME280;64500;52.632;20.656;2022-12-08T02:42:40;99632.04;;;1.90;79.76
75852;BME280;64500;52.632;20.656;2022-12-08T02:45:21;99635.01;;;1.88;79.76
75852;BME280;64500;52.632;20.656;2022-12-08T02:47:50;99636.75;;;1.88;79.73
75852;BME280;64500;52.632;20.656;2022-12-08T02:50:18;99642.32;;;1.89;79.84
75852;BME280;64500;52.632;20.656;2022-12-08T02:52:47;99636.91;;;1.89;79.76
75852;BME280;64500;52.632;20.656;2022-12-08T03:00:26;99639.89;;;1.90;79.70
75852;BME280;64500;52.632;20.656;2022-12-08T03:10:43;99648.94;;;1.92;79.83
75852;BME280;64500;52.632;20.656;2022-12-08T03:13:12;99654.34;;;1.91;80.03
75852;BME280;64500;52.632;20.656;2022-12-08T03:15:40;99655.39;;;1.91;79.87
75852;BME280;64500;52.632;20.656;2022-12-08T03:18:10;99655.55;;;1.92;79.75
75852;BME280;64500;52.632;20.656;2022-12-08T03:20:39;99661.48;;;1.92;79.81
75852;BME280;64500;52.632;20.656;2022-12-08T03:23:10;99658.86;;;1.92;79.82
75852;BME280;64500;52.632;20.656;2022-12-08T03:25:42;99660.79;;;1.92;79.69
75852;BME280;64500;52.632;20.656;2022-12-08T03:28:12;99661.31;;;1.91;79.82
75852;BME280;64500;52.632;20.656;2022-12-08T03:30:42;99660.80;;;1.91;79.62
75852;BME280;64500;52.632;20.656;2022-12-08T03:33:34;99665.15;;;1.91;79.63
75852;BME280;64500;52.632;20.656;2022-12-08T03:36:03;99662.89;;;1.91;79.69
75852;BME280;64500;52.632;20.656;2022-12-08T03:38:37;99663.05;;;1.91;79.77
75852;BME280;64500;52.632;20.656;2022-12-08T03:41:04;99660.45;;;1.91;79.63
75852;BME280;64500;52.632;20.656;2022-12-08T03:43:48;99661.14;;;1.91;79.50
75852;BME280;64500;52.632;20.656;2022-12-08T03:46:17;99660.45;;;1.90;79.84
75852;BME280;64500;52.632;20.656;2022-12-08T03:48:44;99666.55;;;1.90;79.66
75852;BME280;64500;52.632;20.656;2022-12-08T03:51:11;99669.86;;;1.90;79.71
75852;BME280;64500;52.632;20.656;2022-12-08T03:53:38;99673.70;;;1.91;79.73
75852;BME280;64500;52.632;20.656;2022-12-08T03:56:15;99668.45;;;1.91;79.69
75852;BME280;64500;52.632;20.656;2022-12-08T03:58:44;99670.38;;;1.92;79.70
75852;BME280;64500;52.632;20.656;2022-12-08T04:01:12;99675.42;;;1.91;79.61
75852;BME280;64500;52.632;20.656;2022-12-08T04:03:39;99677.52;;;1.91;79.66
75852;BME280;64500;52.632;20.656;2022-12-08T04:06:06;99677.53;;;1.90;79.59
75852;BME280;64500;52.632;20.656;2022-12-08T04:08:34;99679.80;;;1.90;79.63
75852;BME280;64500;52.632;20.656;2022-12-08T04:11:00;99680.84;;;1.90;79.63
75852;BME280;64500;52.632;20.656;2022-12-08T04:13:28;99684.14;;;1.90;79.65
75852;BME280;64500;52.632;20.656;2022-12-08T04:15:55;99682.93;;;1.90;79.48
75852;BME280;64500;52.632;20.656;2022-12-08T04:18:22;99686.05;;;1.89;79.62
75852;BME280;64500;52.632;20.656;2022-12-08T04:20:49;99682.58;;;1.89;79.78
75852;BME280;64500;52.632;20.656;2022-12-08T04:23:16;99686.41;;;1.90;79.61
75852;BME280;64500;52.632;20.656;2022-12-08T04:25:43;99688.32;;;1.90;79.63
75852;BME280;64500;52.632;20.656;2022-12-08T04:28:11;99692.33;;;1.89;79.60
75852;BME280;64500;52.632;20.656;2022-12-08T04:30:38;99695.30;;;1.88;79.64
75852;BME280;64500;52.632;20.656;2022-12-08T04:33:06;99699.48;;;1.88;79.58
75852;BME280;64500;52.632;20.656;2022-12-08T04:35:32;99701.73;;;1.87;79.54
75852;BME280;64500;52.632;20.656;2022-12-08T04:37:59;99708.01;;;1.87;79.71
75852;BME280;64500;52.632;20.656;2022-12-08T04:40:26;99710.45;;;1.86;79.58
75852;BME280;64500;52.632;20.656;2022-12-08T04:42:54;99717.27;;;1.85;79.65
75852;BME280;64500;52.632;20.656;2022-12-08T04:45:21;99723.02;;;1.84;79.58
75852;BME280;64500;52.632;20.656;2022-12-08T04:47:48;99720.57;;;1.83;79.67
75852;BME280;64500;52.632;20.656;2022-12-08T04:50:15;99720.74;;;1.83;79.46
75852;BME280;64500;52.632;20.656;2022-12-08T04:52:43;99727.54;;;1.83;79.61
75852;BME280;64500;52.632;20.656;2022-12-08T04:55:10;99726.33;;;1.82;79.56
75852;BME280;64500;52.632;20.656;2022-12-08T04:57:37;99729.29;;;1.82;79.54
75852;BME280;64500;52.632;20.656;2022-12-08T05:00:04;99725.63;;;1.82;79.61
75852;BME280;64500;52.632;20.656;2022-12-08T05:02:32;99731.90;;;1.82;79.64
75852;BME280;64500;52.632;20.656;2022-12-08T05:04:59;99731.89;;;1.82;79.58
75852;BME280;64500;52.632;20.656;2022-12-08T05:07:26;99731.71;;;1.81;79.54
75852;BME280;64500;52.632;20.656;2022-12-08T05:09:53;99727.36;;;1.80;79.59
75852;BME280;64500;52.632;20.656;2022-12-08T05:12:20;99728.59;;;1.80;79.68
75852;BME280;64500;52.632;20.656;2022-12-08T05:14:47;99727.87;;;1.79;79.53
75852;BME280;64500;52.632;20.656;2022-12-08T05:17:16;99732.58;;;1.79;79.59
75852;BME280;64500;52.632;20.656;2022-12-08T05:19:43;99734.49;;;1.78;79.75
75852;BME280;64500;52.632;20.656;2022-12-08T05:22:10;99737.98;;;1.78;79.65
75852;BME280;64500;52.632;20.656;2022-12-08T05:24:37;99741.29;;;1.78;79.58
75852;BME280;64500;52.632;20.656;2022-12-08T05:27:04;99743.91;;;1.78;79.77
75852;BME280;64500;52.632;20.656;2022-12-08T05:29:31;99744.96;;;1.78;79.65
75852;BME280;64500;52.632;20.656;2022-12-08T05:32:00;99741.99;;;1.77;79.47
75852;BME280;64500;52.632;20.656;2022-12-08T05:34:27;99745.31;;;1.77;79.58
75852;BME280;64500;52.632;20.656;2022-12-08T05:36:54;99745.48;;;1.77;79.43
75852;BME280;64500;52.632;20.656;2022-12-08T05:39:21;99748.63;;;1.76;79.60
75852;BME280;64500;52.632;20.656;2022-12-08T05:41:48;99752.63;;;1.75;79.56
75852;BME280;64500;52.632;20.656;2022-12-08T05:44:15;99752.97;;;1.75;79.50
75852;BME280;64500;52.632;20.656;2022-12-08T05:46:42;99753.15;;;1.74;79.48
75852;BME280;64500;52.632;20.656;2022-12-08T05:49:09;99751.74;;;1.73;79.63
75852;BME280;64500;52.632;20.656;2022-12-08T05:51:36;99755.75;;;1.73;79.48
75852;BME280;64500;52.632;20.656;2022-12-08T05:54:03;99763.41;;;1.72;79.53
75852;BME280;64500;52.632;20.656;2022-12-08T05:56:30;99765.16;;;1.71;79.57
75852;BME280;64500;52.632;20.656;2022-12-08T05:58:57;99771.08;;;1.72;79.65
75852;BME280;64500;52.632;20.656;2022-12-08T06:01:26;99772.30;;;1.72;79.57
75852;BME280;64500;52.632;20.656;2022-12-08T06:03:54;99776.83;;;1.73;79.51
75852;BME280;64500;52.632;20.656;2022-12-08T06:06:21;99779.27;;;1.73;79.74
75852;BME280;64500;52.632;20.656;2022-12-08T06:08:48;99780.14;;;1.73;79.44
75852;BME280;64500;52.632;20.656;2022-12-08T06:11:17;99782.58;;;1.73;79.60
75852;BME280;64500;52.632;20.656;2022-12-08T06:13:45;99782.77;;;1.73;79.52
75852;BME280;64500;52.632;20.656;2022-12-08T06:16:12;99787.11;;;1.75;79.60
75852;BME280;64500;52.632;20.656;2022-12-08T06:18:39;99789.91;;;1.76;79.53
75852;BME280;64500;52.632;20.656;2022-12-08T06:21:08;99791.13;;;1.77;79.61
75852;BME280;64500;52.632;20.656;2022-12-08T06:23:36;99792.35;;;1.78;79.64
75852;BME280;64500;52.632;20.656;2022-12-08T06:26:06;99801.42;;;1.80;79.74
75852;BME280;64500;52.632;20.656;2022-12-08T06:28:35;99797.41;;;1.81;79.70
75852;BME280;64500;52.632;20.656;2022-12-08T06:31:08;99805.61;;;1.84;79.76
75852;BME280;64500;52.632;20.656;2022-12-08T06:33:35;99807.35;;;1.86;79.78
75852;BME280;64500;52.632;20.656;2022-12-08T06:36:03;99809.27;;;1.88;79.70
75852;BME280;64500;52.632;20.656;2022-12-08T06:38:31;99814.33;;;1.90;79.81
75852;BME280;64500;52.632;20.656;2022-12-08T06:40:58;99818.86;;;1.91;79.74
75852;BME280;64500;52.632;20.656;2022-12-08T06:43:26;99818.86;;;1.94;79.89
75852;BME280;64500;52.632;20.656;2022-12-08T06:45:53;99820.61;;;1.96;79.80
75852;BME280;64500;52.632;20.656;2022-12-08T06:48:20;99816.96;;;1.99;79.78
75852;BME280;64500;52.632;20.656;2022-12-08T06:50:47;99824.11;;;2.00;79.69
75852;BME280;64500;52.632;20.656;2022-12-08T06:53:14;99820.98;;;2.03;79.68
75852;BME280;64500;52.632;20.656;2022-12-08T06:55:46;99825.86;;;2.04;79.87
75852;BME280;64500;52.632;20.656;2022-12-08T06:58:14;99829.69;;;2.07;79.94
75852;BME280;64500;52.632;20.656;2022-12-08T07:00:41;99828.83;;;2.09;79.88
75852;BME280;64500;52.632;20.656;2022-12-08T07:03:09;99831.79;;;2.09;79.58
75852;BME280;64500;52.632;20.656;2022-12-08T07:05:37;99831.61;;;2.09;79.50
75852;BME280;64500;52.632;20.656;2022-12-08T07:08:06;99832.66;;;2.09;79.65
75852;BME280;64500;52.632;20.656;2022-12-08T07:10:34;99829.70;;;2.08;79.57
75852;BME280;64500;52.632;20.656;2022-12-08T07:13:01;99833.70;;;2.06;79.40
75852;BME280;64500;52.632;20.656;2022-12-08T07:15:28;99831.44;;;2.05;79.37
75852;BME280;64500;52.632;20.656;2022-12-08T07:17:54;99833.52;;;2.02;79.36
75852;BME280;64500;52.632;20.656;2022-12-08T07:20:21;99836.66;;;2.00;79.41
75852;BME280;64500;52.632;20.656;2022-12-08T07:22:49;99835.27;;;2.00;79.39
75852;BME280;64500;52.632;20.656;2022-12-08T07:25:17;99835.43;;;1.97;79.31
75852;BME280;64500;52.632;20.656;2022-12-08T07:27:44;99841.17;;;1.95;79.41
75852;BME280;64500;52.632;20.656;2022-12-08T07:30:12;99846.76;;;1.94;79.08
75852;BME280;64500;52.632;20.656;2022-12-08T07:32:40;99843.09;;;1.92;79.19
75852;BME280;64500;52.632;20.656;2022-12-08T07:35:08;99847.80;;;1.92;79.30
75852;BME280;64500;52.632;20.656;2022-12-08T07:37:36;99855.30;;;1.91;79.24
75852;BME280;64500;52.632;20.656;2022-12-08T07:40:05;99859.83;;;1.90;79.24
75852;BME280;64500;52.632;20.656;2022-12-08T07:42:33;99862.80;;;1.91;79.26
75852;BME280;64500;52.632;20.656;2022-12-08T07:45:00;99867.67;;;1.90;79.48
75852;BME280;64500;52.632;20.656;2022-12-08T07:47:27;99871.33;;;1.90;79.21
75852;BME280;64500;52.632;20.656;2022-12-08T07:49:54;99871.67;;;1.91;79.32
75852;BME280;64500;52.632;20.656;2022-12-08T07:52:21;99872.55;;;1.91;79.36
75852;BME280;64500;52.632;20.656;2022-12-08T07:54:49;99875.52;;;1.91;79.31
75852;BME280;64500;52.632;20.656;2022-12-08T07:57:16;99872.55;;;1.90;79.36
75852;BME280;64500;52.632;20.656;2022-12-08T07:59:43;99876.39;;;1.90;79.34
75852;BME280;64500;52.632;20.656;2022-12-08T08:02:17;99878.29;;;1.90;79.31
75852;BME280;64500;52.632;20.656;2022-12-08T08:04:49;99876.54;;;1.89;79.58
75852;BME280;64500;52.632;20.656;2022-12-08T08:07:16;99878.45;;;1.89;79.51
75852;BME280;64500;52.632;20.656;2022-12-08T08:09:43;99878.11;;;1.90;79.44
75852;BME280;64500;52.632;20.656;2022-12-08T08:12:13;99881.26;;;1.89;79.46
75852;BME280;64500;52.632;20.656;2022-12-08T08:14:40;99889.27;;;1.89;79.36
75852;BME280;64500;52.632;20.656;2022-12-08T08:17:09;99887.70;;;1.89;79.29
75852;BME280;64500;52.632;20.656;2022-12-08T08:19:36;99888.23;;;1.88;79.46
75852;BME280;64500;52.632;20.656;2022-12-08T08:22:03;99886.13;;;1.88;79.48
75852;BME280;64500;52.632;20.656;2022-12-08T08:24:30;99885.95;;;1.88;79.52
75852;BME280;64500;52.632;20.656;2022-12-08T08:26:59;99886.65;;;1.88;79.42
75852;BME280;64500;52.632;20.656;2022-12-08T08:29:27;99888.05;;;1.88;79.52
75852;BME280;64500;52.632;20.656;2022-12-08T08:31:54;99887.35;;;1.89;79.54
75852;BME280;64500;52.632;20.656;2022-12-08T08:34:20;99890.32;;;1.89;79.65
75852;BME280;64500;52.632;20.656;2022-12-08T08:36:47;99891.36;;;1.88;79.42
75852;BME280;64500;52.632;20.656;2022-12-08T08:39:15;99895.73;;;1.88;79.43
75852;BME280;64500;52.632;20.656;2022-12-08T08:41:41;99903.38;;;1.88;79.52
75852;BME280;64500;52.632;20.656;2022-12-08T08:44:08;99901.98;;;1.88;79.51
75852;BME280;64500;52.632;20.656;2022-12-08T08:46:35;99902.16;;;1.88;79.37
75852;BME280;64500;52.632;20.656;2022-12-08T08:49:02;99901.46;;;1.88;79.44
75852;BME280;64500;52.632;20.656;2022-12-08T08:51:30;99899.90;;;1.88;79.44
75852;BME280;64500;52.632;20.656;2022-12-08T08:53:57;99898.50;;;1.88;79.43
75852;BME280;64500;52.632;20.656;2022-12-08T08:56:24;99899.54;;;1.89;79.55
75852;BME280;64500;52.632;20.656;2022-12-08T08:58:52;99903.20;;;1.89;79.57
75852;BME280;64500;52.632;20.656;2022-12-08T09:01:25;99905.84;;;1.90;79.74
75852;BME280;64500;52.632;20.656;2022-12-08T09:03:52;99909.14;;;1.91;79.54
75852;BME280;64500;52.632;20.656;2022-12-08T09:06:20;99908.78;;;1.89;79.69
75852;BME280;64500;52.632;20.656;2022-12-08T09:08:47;99908.09;;;1.88;79.63
75852;BME280;64500;52.632;20.656;2022-12-08T09:11:15;99904.95;;;1.88;79.58
75852;BME280;64500;52.632;20.656;2022-12-08T09:13:47;99900.94;;;1.88;79.75
75852;BME280;64500;52.632;20.656;2022-12-08T09:16:15;99897.63;;;1.89;79.74
75852;BME280;64500;52.632;20.656;2022-12-08T09:18:42;99894.15;;;1.91;79.74
75852;BME280;64500;52.632;20.656;2022-12-08T09:21:12;99893.64;;;1.92;79.91
75852;BME280;64500;52.632;20.656;2022-12-08T09:23:42;99893.12;;;1.94;79.57
75852;BME280;64500;52.632;20.656;2022-12-08T09:26:09;99889.82;;;1.96;79.85
75852;BME280;64500;52.632;20.656;2022-12-08T09:28:36;99885.11;;;1.99;79.85
75852;BME280;64500;52.632;20.656;2022-12-08T09:31:03;99880.58;;;2.01;79.80
75852;BME280;64500;52.632;20.656;2022-12-08T09:33:31;99879.72;;;2.04;79.86
75852;BME280;64500;52.632;20.656;2022-12-08T09:36:01;99882.70;;;2.07;79.94
75852;BME280;64500;52.632;20.656;2022-12-08T09:38:29;99886.00;;;2.10;79.97
75852;BME280;64500;52.632;20.656;2022-12-08T09:40:57;99884.27;;;2.13;79.87
75852;BME280;64500;52.632;20.656;2022-12-08T09:43:53;99884.12;;;2.17;79.89
75852;BME280;64500;52.632;20.656;2022-12-08T09:46:25;99887.24;;;2.23;79.96
75852;BME280;64500;52.632;20.656;2022-12-08T09:48:56;99885.16;;;2.27;79.68
75852;BME280;64500;52.632;20.656;2022-12-08T09:51:29;99884.83;;;2.31;79.95
75852;BME280;64500;52.632;20.656;2022-12-08T09:56:31;99885.35;;;2.40;80.10
75852;BME280;64500;52.632;20.656;2022-12-08T10:01:32;99883.95;;;2.49;80.22
75852;BME280;64500;52.632;20.656;2022-12-08T10:04:00;99880.84;;;2.53;80.01
75852;BME280;64500;52.632;20.656;2022-12-08T10:06:40;99874.03;;;2.57;79.98
75852;BME280;64500;52.632;20.656;2022-12-08T10:09:31;99871.07;;;2.61;80.11
75852;BME280;64500;52.632;20.656;2022-12-08T10:19:39;99867.56;;;2.76;80.24
75852;BME280;64500;52.632;20.656;2022-12-08T10:22:31;99863.55;;;2.80;80.03
75852;BME280;64500;52.632;20.656;2022-12-08T10:25:04;99862.85;;;2.83;80.23
75852;BME280;64500;52.632;20.656;2022-12-08T10:27:34;99859.02;;;2.86;80.12
75852;BME280;64500;52.632;20.656;2022-12-08T10:30:10;99855.16;;;2.89;80.09
75852;BME280;64500;52.632;20.656;2022-12-08T10:32:41;99851.14;;;2.93;80.01
75852;BME280;64500;52.632;20.656;2022-12-08T10:35:12;99847.11;;;2.96;79.89
75852;BME280;64500;52.632;20.656;2022-12-08T10:37:40;99850.08;;;3.00;80.44
75852;BME280;64500;52.632;20.656;2022-12-08T10:42:37;99840.98;;;3.06;80.35
75852;BME280;64500;52.632;20.656;2022-12-08T10:47:39;99842.54;;;3.11;79.90
75852;BME280;64500;52.632;20.656;2022-12-08T10:52:46;99842.36;;;3.18;80.19
75852;BME280;64500;52.632;20.656;2022-12-08T10:55:20;99844.79;;;3.20;80.35
75852;BME280;64500;52.632;20.656;2022-12-08T10:57:47;99844.08;;;3.24;79.99
75852;BME280;64500;52.632;20.656;2022-12-08T11:00:24;99840.41;;;3.26;80.20
75852;BME280;64500;52.632;20.656;2022-12-08T11:02:54;99839.18;;;3.29;80.00
75852;BME280;64500;52.632;20.656;2022-12-08T11:05:32;99841.61;;;3.31;79.91
75852;BME280;64500;52.632;20.656;2022-12-08T11:08:01;99839.33;;;3.35;80.00
75852;BME280;64500;52.632;20.656;2022-12-08T11:10:52;99840.55;;;3.37;80.06
75852;BME280;64500;52.632;20.656;2022-12-08T11:13:25;99835.13;;;3.39;79.94
75852;BME280;64500;52.632;20.656;2022-12-08T11:15:55;99829.00;;;3.41;79.73
75852;BME280;64500;52.632;20.656;2022-12-08T11:18:39;99826.90;;;3.42;79.89
75852;BME280;64500;52.632;20.656;2022-12-08T11:21:33;99819.55;;;3.44;80.10
75852;BME280;64500;52.632;20.656;2022-12-08T11:24:31;99812.91;;;3.46;80.12
75852;BME280;64500;52.632;20.656;2022-12-08T11:27:02;99814.64;;;3.47;79.80
75852;BME280;64500;52.632;20.656;2022-12-08T11:29:32;99812.20;;;3.48;79.78
75852;BME280;64500;52.632;20.656;2022-12-08T11:32:03;99806.23;;;3.49;79.76
75852;BME280;64500;52.632;20.656;2022-12-08T11:34:45;99806.77;;;3.52;79.84
75852;BME280;64500;52.632;20.656;2022-12-08T11:37:21;99803.80;;;3.53;79.91
75852;BME280;64500;52.632;20.656;2022-12-08T11:39:54;99803.60;;;3.55;79.91
75852;BME280;64500;52.632;20.656;2022-12-08T11:42:31;99798.34;;;3.58;79.83
75852;BME280;64500;52.632;20.656;2022-12-08T11:45:06;99798.34;;;3.60;79.93
75852;BME280;64500;52.632;20.656;2022-12-08T11:47:43;99794.66;;;3.62;80.21
75852;BME280;64500;52.632;20.656;2022-12-08T11:50:26;99796.75;;;3.64;80.17
75852;BME280;64500;52.632;20.656;2022-12-08T11:52:55;99790.27;;;3.65;79.65
75852;BME280;64500;52.632;20.656;2022-12-08T11:55:37;99790.45;;;3.67;79.64
75852;BME280;64500;52.632;20.656;2022-12-08T11:58:21;99785.17;;;3.68;80.00
75852;BME280;64500;52.632;20.656;2022-12-08T12:00:51;99785.17;;;3.69;79.52
75852;BME280;64500;52.632;20.656;2022-12-08T12:03:42;99776.96;;;3.68;79.52
75852;BME280;64500;52.632;20.656;2022-12-08T12:09:18;99773.46;;;3.70;80.02
75852;BME280;64500;52.632;20.656;2022-12-08T12:18:09;99775.72;;;3.73;79.57
75852;BME280;64500;52.632;20.656;2022-12-08T12:23:45;99785.16;;;3.71;79.34
75852;BME280;64500;52.632;20.656;2022-12-08T12:26:19;99782.02;;;3.70;79.40
75852;BME280;64500;52.632;20.656;2022-12-08T12:28:54;99778.37;;;3.68;79.53
75852;BME280;64500;52.632;20.656;2022-12-08T12:31:42;99783.08;;;3.68;79.52
75852;BME280;64500;52.632;20.656;2022-12-08T12:34:28;99773.47;;;3.68;79.48
75852;BME280;64500;52.632;20.656;2022-12-08T12:39:27;99765.96;;;3.68;79.72
75852;BME280;64500;52.632;20.656;2022-12-08T12:42:03;99762.11;;;3.68;79.00
75852;BME280;64500;52.632;20.656;2022-12-08T12:44:36;99759.48;;;3.68;78.96
75852;BME280;64500;52.632;20.656;2022-12-08T12:47:10;99752.84;;;3.69;79.49
75852;BME280;64500;52.632;20.656;2022-12-08T13:10:31;99742.05;;;3.63;79.30
75852;BME280;64500;52.632;20.656;2022-12-08T13:13:05;99747.83;;;3.62;79.39
75852;BME280;64500;52.632;20.656;2022-12-08T13:18:01;99745.04;;;3.60;79.17
75852;BME280;64500;52.632;20.656;2022-12-08T13:20:29;99743.12;;;3.59;79.55
75852;BME280;64500;52.632;20.656;2022-12-08T13:23:12;99746.44;;;3.58;79.21
75852;BME280;64500;52.632;20.656;2022-12-08T13:30:45;99734.95;;;3.53;78.76
75852;BME280;64500;52.632;20.656;2022-12-08T13:33:26;99735.48;;;3.51;79.18
75852;BME280;64500;52.632;20.656;2022-12-08T13:38:46;99729.20;;;3.50;78.84
75852;BME280;64500;52.632;20.656;2022-12-08T13:41:19;99731.48;;;3.48;79.09
75852;BME280;64500;52.632;20.656;2022-12-08T13:43:52;99724.66;;;3.48;78.94
75852;BME280;64500;52.632;20.656;2022-12-08T13:46:32;99722.40;;;3.47;79.25
75852;BME280;64500;52.632;20.656;2022-12-08T13:49:01;99727.30;;;3.46;78.84
75852;BME280;64500;52.632;20.656;2022-12-08T13:51:48;99725.39;;;3.44;79.07
75852;BME280;64500;52.632;20.656;2022-12-08T13:54:17;99733.08;;;3.43;79.10
75852;BME280;64500;52.632;20.656;2022-12-08T13:56:47;99733.08;;;3.42;78.83
75852;BME280;64500;52.632;20.656;2022-12-08T14:01:47;99733.95;;;3.42;78.78
75852;BME280;64500;52.632;20.656;2022-12-08T14:04:21;99733.08;;;3.42;78.84
75852;BME280;64500;52.632;20.656;2022-12-08T14:06:52;99733.96;;;3.41;78.95
75852;BME280;64500;52.632;20.656;2022-12-08T14:09:21;99736.23;;;3.41;79.00
75852;BME280;64500;52.632;20.656;2022-12-08T14:12:16;99738.50;;;3.40;79.07
75852;BME280;64500;52.632;20.656;2022-12-08T14:14:47;99736.77;;;3.41;78.88
75852;BME280;64500;52.632;20.656;2022-12-08T14:17:20;99736.94;;;3.40;78.96
75852;BME280;64500;52.632;20.656;2022-12-08T14:22:20;99739.55;;;3.39;79.12
75852;BME280;64500;52.632;20.656;2022-12-08T14:24:52;99739.40;;;3.38;78.91
75852;BME280;64500;52.632;20.656;2022-12-08T14:27:25;99741.49;;;3.38;79.17
75852;BME280;64500;52.632;20.656;2022-12-08T14:29:56;99740.11;;;3.38;78.71
75852;BME280;64500;52.632;20.656;2022-12-08T14:35:19;99738.37;;;3.37;78.78
75852;BME280;64500;52.632;20.656;2022-12-08T14:37:48;99738.70;;;3.36;78.97
75852;BME280;64500;52.632;20.656;2022-12-08T14:40:34;99733.48;;;3.34;79.33
75852;BME280;64500;52.632;20.656;2022-12-08T14:48:25;99739.60;;;3.32;78.84
75852;BME280;64500;52.632;20.656;2022-12-08T14:53:55;99743.11;;;3.29;78.72
75852;BME280;64500;52.632;20.656;2022-12-08T14:56:47;99741.02;;;3.28;78.77
75852;BME280;64500;52.632;20.656;2022-12-08T14:59:26;99742.25;;;3.26;79.17
75852;BME280;64500;52.632;20.656;2022-12-08T15:02:11;99744.88;;;3.25;78.70
75852;BME280;64500;52.632;20.656;2022-12-08T15:04:42;99739.29;;;3.24;78.76
75852;BME280;64500;52.632;20.656;2022-12-08T15:07:18;99738.42;;;3.23;78.77
75852;BME280;64500;52.632;20.656;2022-12-08T15:09:49;99736.86;;;3.22;78.68